createdAt,value
2019-02-19T00:02:21.019Z,19.43
2019-02-19T00:04:49.434Z,22.67
2019-02-19T00:07:17.838Z,23.83
2019-02-19T00:09:46.250Z,21.23
2019-02-19T00:12:14.662Z,31.33
2019-02-19T00:14:43.071Z,26.30
2019-02-19T00:17:11.470Z,26.80
2019-02-19T00:19:39.932Z,29.83
2019-02-19T00:22:08.365Z,30.23
2019-02-19T00:24:36.781Z,23.20
2019-02-19T00:27:05.222Z,20.53
2019-02-19T00:29:33.618Z,22.93
2019-02-19T00:32:02.030Z,21.00
2019-02-19T00:34:30.465Z,22.43
2019-02-19T00:36:58.871Z,24.27
2019-02-19T00:39:27.282Z,24.10
2019-02-19T00:41:55.682Z,22.73
2019-02-19T00:44:24.130Z,24.83
2019-02-19T00:46:52.762Z,19.90
2019-02-19T00:49:21.230Z,21.87
2019-02-19T00:51:49.709Z,23.23
2019-02-19T00:54:18.126Z,19.73
2019-02-19T00:56:46.529Z,21.30
2019-02-19T00:59:14.958Z,19.63
2019-02-19T01:01:43.386Z,21.30
2019-02-19T01:04:11.810Z,22.43
2019-02-19T01:06:40.211Z,17.83
2019-02-19T01:09:09.542Z,15.57
2019-02-19T01:11:37.969Z,14.67
2019-02-19T01:14:06.441Z,17.43
2019-02-19T01:16:34.852Z,16.37
2019-02-19T01:19:03.254Z,16.37
2019-02-19T01:21:31.661Z,14.03
2019-02-19T01:24:00.077Z,14.27
2019-02-19T01:26:28.746Z,13.70
2019-02-19T01:28:58.360Z,14.17
2019-02-19T01:31:26.885Z,11.33
2019-02-19T01:33:55.306Z,12.03
2019-02-19T01:36:24.021Z,13.83
2019-02-19T01:38:52.424Z,12.80
2019-02-19T01:41:40.170Z,13.17
2019-02-19T01:44:08.570Z,10.40
2019-02-19T01:46:36.970Z,16.03
2019-02-19T01:49:05.670Z,11.00
2019-02-19T01:51:34.061Z,13.77
2019-02-19T01:54:02.463Z,14.90
2019-02-19T01:56:30.932Z,9.53
2019-02-19T01:58:59.330Z,12.30
2019-02-19T02:01:27.740Z,14.27
2019-02-19T02:03:56.164Z,13.63
2019-02-19T02:06:24.578Z,14.60
2019-02-19T02:08:52.945Z,14.67
2019-02-19T02:11:21.354Z,13.20
2019-02-19T02:13:49.858Z,11.13
2019-02-19T02:16:18.251Z,12.77
2019-02-19T02:18:46.727Z,14.97
2019-02-19T02:21:15.130Z,11.00
2019-02-19T02:23:43.525Z,12.07
2019-02-19T02:26:12.238Z,11.10
2019-02-19T02:28:40.671Z,9.90
2019-02-19T02:31:09.085Z,10.17
2019-02-19T02:33:37.474Z,13.20
2019-02-19T02:36:05.888Z,11.83
2019-02-19T02:38:34.298Z,10.83
2019-02-19T02:41:02.694Z,11.63
2019-02-19T02:43:31.232Z,11.27
2019-02-19T02:45:59.626Z,11.13
2019-02-19T02:48:28.097Z,11.37
2019-02-19T02:50:56.571Z,12.80
2019-02-19T02:53:24.987Z,15.10
2019-02-19T02:55:53.387Z,12.87
2019-02-19T02:58:21.802Z,14.33
2019-02-19T03:00:50.195Z,11.40
2019-02-19T03:03:18.596Z,12.47
2019-02-19T03:06:01.905Z,7.97
2019-02-19T03:08:30.296Z,11.50
2019-02-19T03:10:58.739Z,9.67
2019-02-19T03:13:27.520Z,9.90
2019-02-19T03:16:02.250Z,10.00
2019-02-19T03:18:26.048Z,10.73
2019-02-19T03:20:54.459Z,10.77
2019-02-19T03:23:22.866Z,10.77
2019-02-19T03:25:51.264Z,9.27
2019-02-19T03:28:19.658Z,9.23
2019-02-19T03:30:48.232Z,11.00
2019-02-19T03:33:16.711Z,11.30
2019-02-19T03:35:45.111Z,12.43
2019-02-19T03:38:13.518Z,10.27
2019-02-19T03:40:41.941Z,10.03
2019-02-19T03:43:10.335Z,11.10
2019-02-19T03:45:38.729Z,9.77
2019-02-19T03:48:07.159Z,10.93
2019-02-19T03:50:35.563Z,9.60
2019-02-19T03:53:04.141Z,8.13
2019-02-19T03:55:32.607Z,7.50
2019-02-19T03:58:01.266Z,9.17
2019-02-19T04:00:29.794Z,7.00
2019-02-19T04:02:58.198Z,9.03
2019-02-19T04:05:26.870Z,10.23
2019-02-19T04:07:55.295Z,9.37
2019-02-19T04:10:23.688Z,9.50
2019-02-19T04:12:52.078Z,11.27
2019-02-19T04:15:20.487Z,7.80
2019-02-19T04:17:48.905Z,9.13
2019-02-19T04:20:17.297Z,7.53
2019-02-19T04:22:45.696Z,7.97
2019-02-19T04:25:14.129Z,9.37
2019-02-19T04:27:42.821Z,7.93
2019-02-19T04:30:11.283Z,8.30
2019-02-19T04:32:39.675Z,9.57
2019-02-19T04:35:08.086Z,9.23
2019-02-19T04:37:36.501Z,10.57
2019-02-19T04:40:07.132Z,8.83
2019-02-19T04:42:35.539Z,11.40
2019-02-19T04:45:04.870Z,9.47
2019-02-19T04:47:33.322Z,10.13
2019-02-19T04:50:01.707Z,8.07
2019-02-19T04:52:30.114Z,9.60
2019-02-19T04:54:58.510Z,8.50
2019-02-19T04:57:26.926Z,12.37
2019-02-19T04:59:55.403Z,12.47
2019-02-19T05:02:23.818Z,9.90
2019-02-19T05:04:52.215Z,9.30
2019-02-19T05:07:20.663Z,6.37
2019-02-19T05:09:49.056Z,10.27
2019-02-19T05:12:17.470Z,8.47
2019-02-19T05:14:45.871Z,8.43
2019-02-19T05:17:16.319Z,8.67
2019-02-19T05:19:44.403Z,10.20
2019-02-19T05:22:12.803Z,11.37
2019-02-19T05:24:41.459Z,8.67
2019-02-19T05:27:09.861Z,8.00
2019-02-19T05:29:38.259Z,5.80
2019-02-19T05:32:06.671Z,10.03
2019-02-19T05:34:35.171Z,10.43
2019-02-19T05:37:03.596Z,10.87
2019-02-19T05:39:32.039Z,8.70
2019-02-19T05:42:00.506Z,6.53
2019-02-19T05:44:29.205Z,8.43
2019-02-19T05:46:57.641Z,9.40
2019-02-19T05:49:26.079Z,10.33
2019-02-19T05:51:54.509Z,9.03
2019-02-19T05:54:22.929Z,10.03
2019-02-19T05:56:51.331Z,8.10
2019-02-19T05:59:19.723Z,9.43
2019-02-19T06:01:48.146Z,7.97
2019-02-19T06:04:16.539Z,7.87
2019-02-19T06:06:44.940Z,10.87
2019-02-19T06:09:13.357Z,8.57
2019-02-19T06:11:41.764Z,11.80
2019-02-19T06:14:10.177Z,9.73
2019-02-19T06:16:38.927Z,11.40
2019-02-19T06:19:07.406Z,11.03
2019-02-19T06:21:35.798Z,9.83
2019-02-19T06:24:04.194Z,9.33
2019-02-19T06:26:32.701Z,10.53
2019-02-19T06:29:01.111Z,8.07
2019-02-19T06:31:29.502Z,8.30
2019-02-19T06:33:57.993Z,7.53
2019-02-19T06:36:26.410Z,8.93
2019-02-19T06:38:54.843Z,6.73
2019-02-19T06:41:23.241Z,10.50
2019-02-19T06:43:51.717Z,7.90
2019-02-19T06:46:20.118Z,6.33
2019-02-19T06:48:48.507Z,6.17
2019-02-19T06:51:16.930Z,6.33
2019-02-19T06:53:45.646Z,7.77
2019-02-19T06:56:14.037Z,8.47
2019-02-19T06:58:42.426Z,7.47
2019-02-19T07:01:10.884Z,9.43
2019-02-19T07:03:40.910Z,7.47
2019-02-19T07:06:09.317Z,6.20
2019-02-19T07:08:37.713Z,8.17
2019-02-19T07:11:06.105Z,10.33
2019-02-19T07:13:34.719Z,9.87
2019-02-19T07:16:03.110Z,7.90
2019-02-19T07:18:31.506Z,9.57
2019-02-19T07:20:59.963Z,8.30
2019-02-19T07:23:28.354Z,9.87
2019-02-19T07:25:57.095Z,5.90
2019-02-19T07:28:25.489Z,9.97
2019-02-19T07:30:53.921Z,5.97
2019-02-19T07:33:22.315Z,5.77
2019-02-19T07:35:50.726Z,9.63
2019-02-19T07:38:19.146Z,8.20
2019-02-19T07:40:47.539Z,7.70
2019-02-19T07:43:17.194Z,11.67
2019-02-19T07:45:45.606Z,6.53
2019-02-19T07:48:14.054Z,4.10
2019-02-19T07:50:42.442Z,7.87
2019-02-19T07:53:10.859Z,6.10
2019-02-19T07:55:39.257Z,6.47
2019-02-19T07:58:07.646Z,4.70
2019-02-19T08:00:36.058Z,3.97
2019-02-19T08:03:05.087Z,4.90
2019-02-19T08:05:33.499Z,5.30
2019-02-19T08:08:01.901Z,5.40
2019-02-19T08:10:30.300Z,8.23
2019-02-19T08:12:58.704Z,5.67
2019-02-19T08:15:27.111Z,6.13
2019-02-19T08:17:55.507Z,3.87
2019-02-19T08:20:23.901Z,6.83
2019-02-19T08:22:52.315Z,9.30
2019-02-19T08:25:20.716Z,5.87
2019-02-19T08:27:49.133Z,5.83
2019-02-19T08:30:17.624Z,6.33
2019-02-19T08:32:46.103Z,4.83
2019-02-19T08:35:14.510Z,4.87
2019-02-19T08:37:42.953Z,4.70
2019-02-19T08:40:11.341Z,4.33
2019-02-19T08:42:39.757Z,5.00
2019-02-19T08:45:09.597Z,5.53
2019-02-19T08:47:42.580Z,4.13
2019-02-19T08:50:08.646Z,3.47
2019-02-19T08:52:37.039Z,3.90
2019-02-19T08:55:06.376Z,5.17
2019-02-19T08:57:34.774Z,4.53
2019-02-19T09:00:03.837Z,6.03
2019-02-19T09:02:32.244Z,3.90
2019-02-19T09:05:00.651Z,6.57
2019-02-19T09:07:29.038Z,6.00
2019-02-19T09:09:57.450Z,5.93
2019-02-19T09:12:25.874Z,4.57
2019-02-19T09:14:54.381Z,5.90
2019-02-19T09:17:22.777Z,5.50
2019-02-19T09:19:51.186Z,8.37
2019-02-19T09:22:19.587Z,4.97
2019-02-19T09:24:48.155Z,8.63
2019-02-19T09:27:16.782Z,5.07
2019-02-19T09:29:45.181Z,3.97
2019-02-19T09:32:13.637Z,4.90
2019-02-19T09:34:42.039Z,4.50
2019-02-19T09:37:10.442Z,6.00
2019-02-19T09:39:38.847Z,7.00
2019-02-19T09:42:07.358Z,6.57
2019-02-19T09:44:35.763Z,4.27
2019-02-19T09:47:04.178Z,4.93
2019-02-19T09:49:32.606Z,6.97
2019-02-19T09:52:00.978Z,4.33
2019-02-19T09:54:29.402Z,11.57
2019-02-19T09:56:57.807Z,6.47
2019-02-19T09:59:26.242Z,5.90
2019-02-19T10:01:54.645Z,6.47
2019-02-19T10:04:23.042Z,7.33
2019-02-19T10:06:51.449Z,8.43
2019-02-19T10:09:19.891Z,9.10
2019-02-19T10:11:48.309Z,9.40
2019-02-19T10:14:16.719Z,6.87
2019-02-19T10:16:45.144Z,7.03
2019-02-19T10:19:13.553Z,7.30
2019-02-19T10:21:41.966Z,5.87
2019-02-19T10:24:10.379Z,8.60
2019-02-19T10:26:40.606Z,6.77
2019-02-19T10:29:09.459Z,9.47
2019-02-19T10:31:37.961Z,6.53
2019-02-19T10:34:06.366Z,6.00
2019-02-19T10:36:34.779Z,7.00
2019-02-19T10:39:04.574Z,5.43
2019-02-19T10:41:32.970Z,9.00
2019-02-19T10:44:01.366Z,8.27
2019-02-19T10:46:29.778Z,6.10
2019-02-19T10:48:58.177Z,5.90
2019-02-19T10:51:26.654Z,5.83
2019-02-19T10:53:55.070Z,6.83
2019-02-19T10:56:23.463Z,5.93
2019-02-19T10:58:51.858Z,6.73
2019-02-19T11:01:20.270Z,6.57
2019-02-19T11:03:48.928Z,6.17
2019-02-19T11:06:17.318Z,7.77
2019-02-19T11:08:45.719Z,7.73
2019-02-19T11:11:14.150Z,7.13
2019-02-19T11:13:42.557Z,9.67
2019-02-19T11:16:10.952Z,6.70
2019-02-19T11:18:39.455Z,8.33
2019-02-19T11:21:07.874Z,5.90
2019-02-19T11:23:36.286Z,5.10
2019-02-19T11:26:04.688Z,8.77
2019-02-19T11:28:33.074Z,6.37
2019-02-19T11:31:01.486Z,6.23
2019-02-19T11:33:29.879Z,9.67
2019-02-19T11:35:58.290Z,6.70
2019-02-19T11:38:26.682Z,4.53
2019-02-19T11:40:55.333Z,6.63
2019-02-19T11:43:23.730Z,5.23
2019-02-19T11:45:52.122Z,5.57
2019-02-19T11:48:20.522Z,4.93
2019-02-19T11:50:48.930Z,5.87
2019-02-19T11:53:17.598Z,5.50
2019-02-19T11:55:46.036Z,7.07
2019-02-19T11:58:14.427Z,8.37
2019-02-19T12:00:44.410Z,6.53
2019-02-19T12:03:12.802Z,7.20
2019-02-19T12:05:41.198Z,9.50
2019-02-19T12:08:09.607Z,7.07
2019-02-19T12:10:38.017Z,11.30
2019-02-19T12:13:06.410Z,8.00
2019-02-19T12:15:35.532Z,8.03
2019-02-19T12:18:04.112Z,8.90
2019-02-19T12:20:32.543Z,7.10
2019-02-19T12:23:01.212Z,10.10
2019-02-19T12:25:29.610Z,8.67
2019-02-19T12:27:58.022Z,8.90
2019-02-19T12:30:26.489Z,10.30
2019-02-19T12:32:54.882Z,7.23
2019-02-19T12:35:23.294Z,7.37
2019-02-19T12:37:51.694Z,10.80
2019-02-19T12:40:20.153Z,7.30
2019-02-19T12:42:48.550Z,6.40
2019-02-19T12:45:17.162Z,8.60
2019-02-19T12:47:45.559Z,10.60
2019-02-19T12:50:15.392Z,6.83
2019-02-19T12:52:43.826Z,9.20
2019-02-19T12:55:12.361Z,10.57
2019-02-19T12:57:40.753Z,9.97
2019-02-19T13:00:12.388Z,9.73
2019-02-19T13:05:48.703Z,8.37
2019-02-19T13:08:17.103Z,9.77
2019-02-19T13:10:45.533Z,10.67
2019-02-19T13:13:13.931Z,8.27
2019-02-19T13:15:42.545Z,8.47
2019-02-19T13:18:10.962Z,12.20
2019-02-19T13:20:39.351Z,9.20
2019-02-19T13:23:08.082Z,11.87
2019-02-19T13:25:36.481Z,8.37
2019-02-19T13:28:04.871Z,8.03
2019-02-19T13:30:33.290Z,8.77
2019-02-19T13:33:01.696Z,11.83
2019-02-19T13:35:30.092Z,8.50
2019-02-19T13:37:58.498Z,7.83
2019-02-19T13:40:27.226Z,9.27
2019-02-19T13:42:55.618Z,13.30
2019-02-19T13:45:24.097Z,11.33
2019-02-19T13:47:52.486Z,14.77
2019-02-19T13:50:28.982Z,11.93
2019-02-19T13:53:13.614Z,9.53
2019-02-19T13:55:43.646Z,10.90
2019-02-19T13:58:12.081Z,14.57
2019-02-19T14:00:42.106Z,8.67
2019-02-19T14:03:10.506Z,10.47
2019-02-19T14:05:38.923Z,9.33
2019-02-19T14:08:14.315Z,8.20
2019-02-19T14:10:37.438Z,9.43
2019-02-19T14:13:05.846Z,10.17
2019-02-19T14:15:42.092Z,10.97
2019-02-19T14:18:12.143Z,8.97
2019-02-19T14:20:42.189Z,7.73
2019-02-19T14:23:34.182Z,9.50
2019-02-19T14:28:57.849Z,8.57
2019-02-19T14:31:37.043Z,11.17
2019-02-19T14:34:10.181Z,8.70
2019-02-19T14:36:43.343Z,13.47
2019-02-19T14:39:29.866Z,12.57
2019-02-19T14:41:59.918Z,11.17
2019-02-19T14:44:45.003Z,10.57
2019-02-19T14:47:27.101Z,13.70
2019-02-19T14:50:09.161Z,9.60
2019-02-19T14:52:39.522Z,11.80
2019-02-19T14:55:18.751Z,11.97
2019-02-19T14:58:04.949Z,9.60
2019-02-19T15:00:47.255Z,14.07
2019-02-19T15:06:23.707Z,11.43
2019-02-19T15:08:53.755Z,13.90
2019-02-19T15:11:23.798Z,10.17
2019-02-19T15:13:56.575Z,13.53
2019-02-19T15:16:29.275Z,12.23
2019-02-19T15:19:02.066Z,9.27
2019-02-19T15:21:37.934Z,12.53
2019-02-19T15:24:07.991Z,10.03
2019-02-19T15:26:46.983Z,14.70
2019-02-19T15:29:17.148Z,9.17
2019-02-19T15:31:47.163Z,13.57
2019-02-19T15:34:19.958Z,11.47
2019-02-19T15:37:06.362Z,11.57
2019-02-19T15:39:52.990Z,10.57
2019-02-19T15:42:34.891Z,14.50
2019-02-19T15:45:23.053Z,11.37
2019-02-19T15:47:53.078Z,14.23
2019-02-19T15:50:39.626Z,12.33
2019-02-19T15:53:09.653Z,14.17
2019-02-19T15:55:45.481Z,10.53
2019-02-19T15:58:18.014Z,11.57
2019-02-19T16:00:48.122Z,15.23
2019-02-19T16:03:23.918Z,12.10
2019-02-19T16:05:56.658Z,14.93
2019-02-19T16:08:26.712Z,14.67
2019-02-19T16:11:09.011Z,11.80
2019-02-19T16:13:39.077Z,10.33
2019-02-19T16:16:24.151Z,10.83
2019-02-19T16:18:54.231Z,9.93
2019-02-19T16:21:27.387Z,12.40
2019-02-19T16:24:15.860Z,13.60
2019-02-19T16:26:45.882Z,11.90
2019-02-19T16:29:32.242Z,14.07
2019-02-19T16:32:02.273Z,13.27
2019-02-19T16:34:38.050Z,12.20
2019-02-19T16:37:10.799Z,11.23
2019-02-19T16:39:49.852Z,13.37
2019-02-19T16:42:31.966Z,10.93
2019-02-19T16:45:20.297Z,13.03
2019-02-19T16:47:50.337Z,14.83
2019-02-19T16:50:23.330Z,12.83
2019-02-19T16:52:53.386Z,11.77
2019-02-19T16:55:39.155Z,13.03
2019-02-19T16:58:11.910Z,13.87
2019-02-19T17:00:42.221Z,13.40
2019-02-19T17:03:17.970Z,13.40
2019-02-19T17:05:53.997Z,15.47
2019-02-19T17:08:26.999Z,13.77
2019-02-19T17:10:57.046Z,16.83
2019-02-19T17:13:30.339Z,13.50
2019-02-19T17:16:36.100Z,15.77
2019-02-19T17:19:44.007Z,14.77
2019-02-19T17:22:29.280Z,15.80
2019-02-19T17:27:47.054Z,16.83
2019-02-19T17:30:20.062Z,18.23
2019-02-19T17:32:50.128Z,19.43
2019-02-19T17:38:27.927Z,16.67
2019-02-19T17:41:10.257Z,15.70
2019-02-19T17:43:49.186Z,20.40
2019-02-19T17:46:37.379Z,20.50
2019-02-19T17:49:23.802Z,17.73
2019-02-19T17:51:56.758Z,18.73
2019-02-19T17:54:26.786Z,18.80
2019-02-19T17:57:02.676Z,19.33
2019-02-19T17:59:44.625Z,22.13
2019-02-19T18:02:17.387Z,19.87
2019-02-19T18:04:47.460Z,16.00
2019-02-19T18:07:26.544Z,16.27
2019-02-19T18:10:02.707Z,18.20
2019-02-19T18:12:32.738Z,20.17
2019-02-19T18:15:05.710Z,16.57
2019-02-19T18:17:38.691Z,17.80
2019-02-19T18:20:08.022Z,22.67
2019-02-19T18:22:36.442Z,19.10
2019-02-19T18:25:06.191Z,20.97
2019-02-19T18:27:34.603Z,17.23
2019-02-19T18:30:03.015Z,16.43
2019-02-19T18:32:31.414Z,16.30
2019-02-19T18:34:59.821Z,17.60
2019-02-19T18:37:28.225Z,17.07
2019-02-19T18:39:56.634Z,19.00
2019-02-19T18:42:25.087Z,19.83
2019-02-19T18:44:53.502Z,19.37
2019-02-19T18:47:21.881Z,19.03
2019-02-19T18:49:50.320Z,20.43
2019-02-19T18:52:18.723Z,15.93
2019-02-19T18:54:47.150Z,23.00
2019-02-19T18:57:15.570Z,24.90
2019-02-19T18:59:43.969Z,29.30
2019-02-19T19:02:12.382Z,24.67
2019-02-19T19:04:40.815Z,29.00
2019-02-19T19:07:09.279Z,26.33
2019-02-19T19:09:37.688Z,28.40
2019-02-19T19:12:06.206Z,23.37
2019-02-19T19:14:34.626Z,24.60
2019-02-19T19:17:03.018Z,27.23
2019-02-19T19:19:31.422Z,24.20
2019-02-19T19:21:59.833Z,26.13
2019-02-19T19:24:28.740Z,24.87
2019-02-19T19:26:57.238Z,27.37
2019-02-19T19:29:25.664Z,21.93
2019-02-19T19:31:54.057Z,25.10
2019-02-19T19:34:22.461Z,25.13
2019-02-19T19:36:50.861Z,21.80
2019-02-19T19:39:20.022Z,22.27
2019-02-19T19:41:48.554Z,27.67
2019-02-19T19:44:16.958Z,21.90
2019-02-19T19:46:45.365Z,20.73
2019-02-19T19:49:13.778Z,17.77
2019-02-19T19:51:42.190Z,18.90
2019-02-19T19:54:10.598Z,14.43
2019-02-19T19:56:39.070Z,23.17
2019-02-19T19:59:07.479Z,14.43
2019-02-19T20:01:55.503Z,13.17
2019-02-19T20:04:23.973Z,13.77
2019-02-19T20:06:52.897Z,12.33
2019-02-19T20:09:21.889Z,13.07
2019-02-19T20:11:50.575Z,12.00
2019-02-19T20:14:19.102Z,10.10
2019-02-19T20:16:47.703Z,11.50
2019-02-19T20:19:16.260Z,13.57
2019-02-19T20:21:44.777Z,13.60
2019-02-19T20:24:13.278Z,11.60
2019-02-19T20:26:41.842Z,13.83
2019-02-19T20:29:10.283Z,12.73
2019-02-19T20:31:39.410Z,11.30
2019-02-19T20:34:08.095Z,13.57
2019-02-19T20:36:36.644Z,13.67
2019-02-19T20:39:06.142Z,19.47
2019-02-19T20:41:54.089Z,24.83
2019-02-19T20:44:22.804Z,24.73
2019-02-19T20:46:51.282Z,22.97
2019-02-19T20:49:19.687Z,22.53
2019-02-19T20:51:48.108Z,26.97
2019-02-19T20:54:16.503Z,23.40
2019-02-19T20:56:44.898Z,26.57
2019-02-19T20:59:13.664Z,25.97
2019-02-19T21:01:42.072Z,26.43
2019-02-19T21:04:10.495Z,24.60
2019-02-19T21:06:38.920Z,25.20
2019-02-19T21:09:07.307Z,26.37
2019-02-19T21:11:35.912Z,25.90
2019-02-19T21:14:04.370Z,27.67
2019-02-19T21:16:32.770Z,21.53
2019-02-19T21:19:01.172Z,27.10
2019-02-19T21:21:29.594Z,24.20
2019-02-19T21:23:57.991Z,25.23
2019-02-19T21:26:26.704Z,22.33
2019-02-19T21:28:55.162Z,26.10
2019-02-19T21:31:23.870Z,21.43
2019-02-19T21:33:52.270Z,21.33
2019-02-19T21:36:20.687Z,21.93
2019-02-19T21:38:49.126Z,21.60
2019-02-19T21:41:17.531Z,20.73
2019-02-19T21:43:45.956Z,19.37
2019-02-19T21:46:14.342Z,25.60
2019-02-19T21:48:48.041Z,21.67
2019-02-19T21:51:12.995Z,23.70
2019-02-19T21:53:41.446Z,22.07
2019-02-19T21:56:09.826Z,20.00
2019-02-19T21:58:38.523Z,19.40
2019-02-19T22:01:06.923Z,21.00
2019-02-19T22:03:35.331Z,21.20
2019-02-19T22:06:03.807Z,15.93
2019-02-19T22:08:32.226Z,21.13
2019-02-19T22:11:00.654Z,20.13
2019-02-19T22:13:29.074Z,21.80
2019-02-19T22:15:57.583Z,21.50
2019-02-19T22:18:25.982Z,18.67
2019-02-19T22:20:56.281Z,21.07
2019-02-19T22:23:24.682Z,24.97
2019-02-19T22:25:53.083Z,23.43
2019-02-19T22:28:22.960Z,17.07
2019-02-19T22:30:51.478Z,16.70
2019-02-19T22:33:20.854Z,18.67
2019-02-19T22:35:49.245Z,16.10
2019-02-19T22:38:17.707Z,18.17
2019-02-19T22:40:54.818Z,17.73
2019-02-19T22:43:16.574Z,17.23
2019-02-19T22:45:44.974Z,16.07
2019-02-19T22:48:13.398Z,18.53
2019-02-19T22:50:41.795Z,17.20
2019-02-19T22:53:11.835Z,16.80
2019-02-19T22:55:51.752Z,16.43
2019-02-19T22:58:20.239Z,18.67
2019-02-19T23:03:31.463Z,17.30
2019-02-19T23:05:59.882Z,17.43
2019-02-19T23:08:28.283Z,18.97
2019-02-19T23:10:56.687Z,17.33
2019-02-19T23:13:25.102Z,18.10
2019-02-19T23:15:53.503Z,15.33
2019-02-19T23:18:21.918Z,23.93
2019-02-19T23:20:50.320Z,19.03
2019-02-19T23:23:18.740Z,23.20
2019-02-19T23:25:47.150Z,25.13
2019-02-19T23:28:15.571Z,28.13
2019-02-19T23:30:44.001Z,34.63
2019-02-19T23:33:12.399Z,38.57
2019-02-19T23:35:42.451Z,34.20
2019-02-19T23:38:11.103Z,40.13
2019-02-19T23:40:39.493Z,45.10
2019-02-19T23:43:07.918Z,35.40
2019-02-19T23:45:36.327Z,35.93
2019-02-19T23:48:04.742Z,28.13
2019-02-19T23:50:33.135Z,28.80
2019-02-19T23:53:01.818Z,26.03
2019-02-19T23:55:30.221Z,25.40
2019-02-19T23:57:58.613Z,27.17
